sensor_id;sensor_type;location;lat;lon;timestamp;temperature;humidity
21807;DHT22;11065;50.786;7.840;2022-10-16T00:00:55;16.10;62.60
21807;DHT22;11065;50.786;7.840;2022-10-16T00:03:22;16.10;62.60
21807;DHT22;11065;50.786;7.840;2022-10-16T00:05:59;16.10;62.60
21807;DHT22;11065;50.786;7.840;2022-10-16T00:08:27;16.10;62.90
21807;DHT22;11065;50.786;7.840;2022-10-16T00:11:03;16.00;62.70
21807;DHT22;11065;50.786;7.840;2022-10-16T00:13:32;16.00;63.40
21807;DHT22;11065;50.786;7.840;2022-10-16T00:16:00;16.00;63.20
21807;DHT22;11065;50.786;7.840;2022-10-16T00:18:28;16.00;63.50
21807;DHT22;11065;50.786;7.840;2022-10-16T00:20:55;16.00;63.80
21807;DHT22;11065;50.786;7.840;2022-10-16T00:23:22;16.00;63.80
21807;DHT22;11065;50.786;7.840;2022-10-16T00:26:00;16.00;63.90
21807;DHT22;11065;50.786;7.840;2022-10-16T00:28:28;16.00;64.40
21807;DHT22;11065;50.786;7.840;2022-10-16T00:30:55;16.00;63.90
21807;DHT22;11065;50.786;7.840;2022-10-16T00:33:22;16.00;64.10
21807;DHT22;11065;50.786;7.840;2022-10-16T00:35:49;16.00;64.00
21807;DHT22;11065;50.786;7.840;2022-10-16T00:38:16;16.00;64.10
21807;DHT22;11065;50.786;7.840;2022-10-16T00:40:43;16.00;64.10
21807;DHT22;11065;50.786;7.840;2022-10-16T00:43:35;16.00;64.10
21807;DHT22;11065;50.786;7.840;2022-10-16T00:46:07;16.00;65.10
21807;DHT22;11065;50.786;7.840;2022-10-16T00:48:35;16.00;64.10
21807;DHT22;11065;50.786;7.840;2022-10-16T00:51:03;15.90;63.80
21807;DHT22;11065;50.786;7.840;2022-10-16T00:53:32;15.90;63.80
21807;DHT22;11065;50.786;7.840;2022-10-16T00:55:59;15.90;63.80
21807;DHT22;11065;50.786;7.840;2022-10-16T00:58:26;15.90;63.80
21807;DHT22;11065;50.786;7.840;2022-10-16T01:00:52;15.80;63.60
21807;DHT22;11065;50.786;7.840;2022-10-16T01:03:32;15.80;63.60
21807;DHT22;11065;50.786;7.840;2022-10-16T01:06:09;15.80;64.20
21807;DHT22;11065;50.786;7.840;2022-10-16T01:11:42;15.70;64.10
21807;DHT22;11065;50.786;7.840;2022-10-16T01:14:19;15.70;64.60
21807;DHT22;11065;50.786;7.840;2022-10-16T01:16:55;15.60;64.50
21807;DHT22;11065;50.786;7.840;2022-10-16T01:19:36;15.70;64.60
21807;DHT22;11065;50.786;7.840;2022-10-16T01:22:04;15.60;64.40
21807;DHT22;11065;50.786;7.840;2022-10-16T01:24:44;15.60;64.40
21807;DHT22;11065;50.786;7.840;2022-10-16T01:30:23;15.60;64.30
21807;DHT22;11065;50.786;7.840;2022-10-16T01:33:01;15.60;65.40
21807;DHT22;11065;50.786;7.840;2022-10-16T01:35:34;15.50;64.60
21807;DHT22;11065;50.786;7.840;2022-10-16T01:38:10;15.50;64.20
21807;DHT22;11065;50.786;7.840;2022-10-16T01:40:41;15.50;64.60
21807;DHT22;11065;50.786;7.840;2022-10-16T01:43:18;15.50;64.50
21807;DHT22;11065;50.786;7.840;2022-10-16T01:45:46;15.50;64.70
21807;DHT22;11065;50.786;7.840;2022-10-16T01:48:17;15.40;64.50
21807;DHT22;11065;50.786;7.840;2022-10-16T01:50:55;15.40;64.70
21807;DHT22;11065;50.786;7.840;2022-10-16T01:53:22;15.40;64.70
21807;DHT22;11065;50.786;7.840;2022-10-16T01:55:52;15.40;64.80
21807;DHT22;11065;50.786;7.840;2022-10-16T01:58:22;15.40;64.80
21807;DHT22;11065;50.786;7.840;2022-10-16T02:00:51;15.40;64.70
21807;DHT22;11065;50.786;7.840;2022-10-16T02:03:22;15.40;64.60
21807;DHT22;11065;50.786;7.840;2022-10-16T02:05:56;15.30;64.50
21807;DHT22;11065;50.786;7.840;2022-10-16T02:08:28;15.30;65.00
21807;DHT22;11065;50.786;7.840;2022-10-16T02:11:00;15.30;64.70
21807;DHT22;11065;50.786;7.840;2022-10-16T02:13:34;15.30;64.80
21807;DHT22;11065;50.786;7.840;2022-10-16T02:16:03;15.30;64.80
21807;DHT22;11065;50.786;7.840;2022-10-16T02:18:30;15.30;64.40
21807;DHT22;11065;50.786;7.840;2022-10-16T02:21:17;15.20;64.40
21807;DHT22;11065;50.786;7.840;2022-10-16T02:23:54;15.20;64.60
21807;DHT22;11065;50.786;7.840;2022-10-16T02:26:40;15.20;64.40
21807;DHT22;11065;50.786;7.840;2022-10-16T02:29:13;15.10;64.40
21807;DHT22;11065;50.786;7.840;2022-10-16T02:31:45;15.10;64.40
21807;DHT22;11065;50.786;7.840;2022-10-16T02:34:14;15.10;64.40
21807;DHT22;11065;50.786;7.840;2022-10-16T02:36:43;15.10;64.30
21807;DHT22;11065;50.786;7.840;2022-10-16T02:39:11;15.10;64.30
21807;DHT22;11065;50.786;7.840;2022-10-16T02:41:38;15.00;64.20
21807;DHT22;11065;50.786;7.840;2022-10-16T02:44:05;15.00;64.20
21807;DHT22;11065;50.786;7.840;2022-10-16T02:46:32;14.90;64.20
21807;DHT22;11065;50.786;7.840;2022-10-16T02:48:58;14.90;64.50
21807;DHT22;11065;50.786;7.840;2022-10-16T02:51:25;14.90;64.70
21807;DHT22;11065;50.786;7.840;2022-10-16T02:53:52;14.90;64.80
21807;DHT22;11065;50.786;7.840;2022-10-16T02:56:19;14.80;65.10
21807;DHT22;11065;50.786;7.840;2022-10-16T02:58:46;14.80;65.90
21807;DHT22;11065;50.786;7.840;2022-10-16T03:01:12;14.80;65.50
21807;DHT22;11065;50.786;7.840;2022-10-16T03:03:40;14.80;65.70
21807;DHT22;11065;50.786;7.840;2022-10-16T03:06:07;14.90;65.90
21807;DHT22;11065;50.786;7.840;2022-10-16T03:08:34;14.90;66.10
21807;DHT22;11065;50.786;7.840;2022-10-16T03:11:00;14.90;66.20
21807;DHT22;11065;50.786;7.840;2022-10-16T03:13:27;14.90;66.30
21807;DHT22;11065;50.786;7.840;2022-10-16T03:15:54;14.90;66.20
21807;DHT22;11065;50.786;7.840;2022-10-16T03:18:21;14.90;66.20
21807;DHT22;11065;50.786;7.840;2022-10-16T03:20:48;15.00;66.30
21807;DHT22;11065;50.786;7.840;2022-10-16T03:23:15;15.00;66.20
21807;DHT22;11065;50.786;7.840;2022-10-16T03:25:42;15.00;66.30
21807;DHT22;11065;50.786;7.840;2022-10-16T03:28:08;15.00;66.30
21807;DHT22;11065;50.786;7.840;2022-10-16T03:30:37;15.00;66.40
21807;DHT22;11065;50.786;7.840;2022-10-16T03:33:06;15.00;66.50
21807;DHT22;11065;50.786;7.840;2022-10-16T03:35:32;15.10;66.80
21807;DHT22;11065;50.786;7.840;2022-10-16T03:37:59;15.10;66.70
21807;DHT22;11065;50.786;7.840;2022-10-16T03:40:26;15.10;66.60
21807;DHT22;11065;50.786;7.840;2022-10-16T03:42:53;15.10;66.40
21807;DHT22;11065;50.786;7.840;2022-10-16T03:45:24;15.10;66.40
21807;DHT22;11065;50.786;7.840;2022-10-16T03:47:50;15.10;66.50
21807;DHT22;11065;50.786;7.840;2022-10-16T03:50:17;15.10;66.50
21807;DHT22;11065;50.786;7.840;2022-10-16T03:52:44;15.20;66.70
21807;DHT22;11065;50.786;7.840;2022-10-16T03:55:11;15.20;66.80
21807;DHT22;11065;50.786;7.840;2022-10-16T03:57:37;15.20;66.70
21807;DHT22;11065;50.786;7.840;2022-10-16T04:00:05;15.20;66.60
21807;DHT22;11065;50.786;7.840;2022-10-16T04:02:37;15.20;66.70
21807;DHT22;11065;50.786;7.840;2022-10-16T04:05:04;15.20;66.70
21807;DHT22;11065;50.786;7.840;2022-10-16T04:07:31;15.20;66.90
21807;DHT22;11065;50.786;7.840;2022-10-16T04:09:58;15.20;67.20
21807;DHT22;11065;50.786;7.840;2022-10-16T04:12:26;15.20;67.70
21807;DHT22;11065;50.786;7.840;2022-10-16T04:14:53;15.30;68.00
21807;DHT22;11065;50.786;7.840;2022-10-16T04:17:19;15.30;67.90
21807;DHT22;11065;50.786;7.840;2022-10-16T04:19:46;15.30;67.70
21807;DHT22;11065;50.786;7.840;2022-10-16T04:22:13;15.30;67.90
21807;DHT22;11065;50.786;7.840;2022-10-16T04:24:40;15.40;68.40
21807;DHT22;11065;50.786;7.840;2022-10-16T04:27:06;15.40;68.60
21807;DHT22;11065;50.786;7.840;2022-10-16T04:29:33;15.40;68.90
21807;DHT22;11065;50.786;7.840;2022-10-16T04:32:00;15.50;69.10
21807;DHT22;11065;50.786;7.840;2022-10-16T04:34:26;15.50;69.60
21807;DHT22;11065;50.786;7.840;2022-10-16T04:36:53;15.60;69.80
21807;DHT22;11065;50.786;7.840;2022-10-16T04:39:20;15.70;69.70
21807;DHT22;11065;50.786;7.840;2022-10-16T04:41:47;15.70;69.70
21807;DHT22;11065;50.786;7.840;2022-10-16T04:44:14;15.80;69.70
21807;DHT22;11065;50.786;7.840;2022-10-16T04:46:41;15.90;69.70
21807;DHT22;11065;50.786;7.840;2022-10-16T04:49:08;15.90;69.60
21807;DHT22;11065;50.786;7.840;2022-10-16T04:51:34;15.90;69.50
21807;DHT22;11065;50.786;7.840;2022-10-16T04:54:02;16.00;69.50
21807;DHT22;11065;50.786;7.840;2022-10-16T04:56:29;16.00;69.50
21807;DHT22;11065;50.786;7.840;2022-10-16T04:58:55;16.00;69.50
21807;DHT22;11065;50.786;7.840;2022-10-16T05:01:22;16.10;69.40
21807;DHT22;11065;50.786;7.840;2022-10-16T05:03:49;16.10;69.40
21807;DHT22;11065;50.786;7.840;2022-10-16T05:06:16;16.10;69.30
21807;DHT22;11065;50.786;7.840;2022-10-16T05:08:43;16.10;69.20
21807;DHT22;11065;50.786;7.840;2022-10-16T05:11:09;16.10;69.10
21807;DHT22;11065;50.786;7.840;2022-10-16T05:13:36;16.20;69.20
21807;DHT22;11065;50.786;7.840;2022-10-16T05:16:03;16.20;69.10
21807;DHT22;11065;50.786;7.840;2022-10-16T05:18:30;16.20;69.00
21807;DHT22;11065;50.786;7.840;2022-10-16T05:20:57;16.30;69.00
21807;DHT22;11065;50.786;7.840;2022-10-16T05:23:24;16.20;68.80
21807;DHT22;11065;50.786;7.840;2022-10-16T05:25:55;16.20;68.70
21807;DHT22;11065;50.786;7.840;2022-10-16T05:28:22;16.20;69.00
21807;DHT22;11065;50.786;7.840;2022-10-16T05:30:49;16.30;68.90
21807;DHT22;11065;50.786;7.840;2022-10-16T05:33:15;16.30;68.90
21807;DHT22;11065;50.786;7.840;2022-10-16T05:35:42;16.30;68.90
21807;DHT22;11065;50.786;7.840;2022-10-16T05:38:10;16.30;68.80
21807;DHT22;11065;50.786;7.840;2022-10-16T05:40:37;16.30;68.60
21807;DHT22;11065;50.786;7.840;2022-10-16T05:43:03;16.30;68.50
21807;DHT22;11065;50.786;7.840;2022-10-16T05:45:30;16.30;68.50
21807;DHT22;11065;50.786;7.840;2022-10-16T05:47:57;16.30;68.60
21807;DHT22;11065;50.786;7.840;2022-10-16T05:50:24;16.30;68.70
21807;DHT22;11065;50.786;7.840;2022-10-16T05:52:50;16.30;68.60
21807;DHT22;11065;50.786;7.840;2022-10-16T05:55:17;16.30;68.60
21807;DHT22;11065;50.786;7.840;2022-10-16T05:57:44;16.40;68.60
21807;DHT22;11065;50.786;7.840;2022-10-16T06:00:11;16.40;68.50
21807;DHT22;11065;50.786;7.840;2022-10-16T06:02:38;16.40;68.60
21807;DHT22;11065;50.786;7.840;2022-10-16T06:05:05;16.40;68.60
21807;DHT22;11065;50.786;7.840;2022-10-16T06:07:36;16.40;68.60
21807;DHT22;11065;50.786;7.840;2022-10-16T06:10:04;16.40;68.70
21807;DHT22;11065;50.786;7.840;2022-10-16T06:12:31;16.40;68.60
21807;DHT22;11065;50.786;7.840;2022-10-16T06:14:58;16.40;68.80
21807;DHT22;11065;50.786;7.840;2022-10-16T06:17:25;16.50;69.00
21807;DHT22;11065;50.786;7.840;2022-10-16T06:19:52;16.50;68.80
21807;DHT22;11065;50.786;7.840;2022-10-16T06:22:18;16.50;68.80
21807;DHT22;11065;50.786;7.840;2022-10-16T06:24:46;16.50;68.60
21807;DHT22;11065;50.786;7.840;2022-10-16T06:27:14;16.60;68.60
21807;DHT22;11065;50.786;7.840;2022-10-16T06:29:40;16.60;68.50
21807;DHT22;11065;50.786;7.840;2022-10-16T06:32:09;16.60;68.30
21807;DHT22;11065;50.786;7.840;2022-10-16T06:34:36;16.60;68.30
21807;DHT22;11065;50.786;7.840;2022-10-16T06:37:08;16.70;68.40
21807;DHT22;11065;50.786;7.840;2022-10-16T06:39:35;16.70;68.30
21807;DHT22;11065;50.786;7.840;2022-10-16T06:42:02;16.70;68.20
21807;DHT22;11065;50.786;7.840;2022-10-16T06:44:35;16.70;68.20
21807;DHT22;11065;50.786;7.840;2022-10-16T06:47:01;16.80;68.30
21807;DHT22;11065;50.786;7.840;2022-10-16T06:49:28;16.80;68.30
21807;DHT22;11065;50.786;7.840;2022-10-16T06:51:55;16.80;68.30
21807;DHT22;11065;50.786;7.840;2022-10-16T06:54:22;16.90;68.30
21807;DHT22;11065;50.786;7.840;2022-10-16T06:56:51;16.90;68.30
21807;DHT22;11065;50.786;7.840;2022-10-16T06:59:18;16.90;68.10
21807;DHT22;11065;50.786;7.840;2022-10-16T07:01:44;16.90;67.80
21807;DHT22;11065;50.786;7.840;2022-10-16T07:04:11;17.00;67.80
21807;DHT22;11065;50.786;7.840;2022-10-16T07:06:38;17.00;67.70
21807;DHT22;11065;50.786;7.840;2022-10-16T07:09:09;17.00;67.60
21807;DHT22;11065;50.786;7.840;2022-10-16T07:11:37;17.00;67.50
21807;DHT22;11065;50.786;7.840;2022-10-16T07:14:04;17.10;67.50
21807;DHT22;11065;50.786;7.840;2022-10-16T07:16:32;17.10;67.50
21807;DHT22;11065;50.786;7.840;2022-10-16T07:19:01;17.10;67.60
21807;DHT22;11065;50.786;7.840;2022-10-16T07:21:30;17.10;68.40
21807;DHT22;11065;50.786;7.840;2022-10-16T07:23:59;17.20;67.80
21807;DHT22;11065;50.786;7.840;2022-10-16T07:26:29;17.20;67.70
21807;DHT22;11065;50.786;7.840;2022-10-16T07:28:57;17.30;67.70
21807;DHT22;11065;50.786;7.840;2022-10-16T07:31:25;17.30;67.90
21807;DHT22;11065;50.786;7.840;2022-10-16T07:33:52;17.30;68.10
21807;DHT22;11065;50.786;7.840;2022-10-16T07:36:20;17.40;68.30
21807;DHT22;11065;50.786;7.840;2022-10-16T07:38:47;17.50;68.30
21807;DHT22;11065;50.786;7.840;2022-10-16T07:41:17;17.60;68.10
21807;DHT22;11065;50.786;7.840;2022-10-16T07:43:48;17.60;67.90
21807;DHT22;11065;50.786;7.840;2022-10-16T07:46:16;17.70;68.00
21807;DHT22;11065;50.786;7.840;2022-10-16T07:48:44;17.80;68.50
21807;DHT22;11065;50.786;7.840;2022-10-16T07:51:15;17.90;68.40
21807;DHT22;11065;50.786;7.840;2022-10-16T07:53:42;18.00;67.70
21807;DHT22;11065;50.786;7.840;2022-10-16T07:56:09;18.10;67.50
21807;DHT22;11065;50.786;7.840;2022-10-16T07:58:36;18.20;67.50
21807;DHT22;11065;50.786;7.840;2022-10-16T08:01:08;18.30;67.40
21807;DHT22;11065;50.786;7.840;2022-10-16T08:03:35;18.40;67.10
21807;DHT22;11065;50.786;7.840;2022-10-16T08:06:03;18.50;66.20
21807;DHT22;11065;50.786;7.840;2022-10-16T08:08:30;18.50;65.70
21807;DHT22;11065;50.786;7.840;2022-10-16T08:10:57;18.60;65.50
21807;DHT22;11065;50.786;7.840;2022-10-16T08:13:24;18.60;65.60
21807;DHT22;11065;50.786;7.840;2022-10-16T08:15:51;18.70;65.80
21807;DHT22;11065;50.786;7.840;2022-10-16T08:18:20;18.70;66.00
21807;DHT22;11065;50.786;7.840;2022-10-16T08:20:46;18.80;66.30
21807;DHT22;11065;50.786;7.840;2022-10-16T08:23:13;18.90;66.70
21807;DHT22;11065;50.786;7.840;2022-10-16T08:25:40;19.10;66.70
21807;DHT22;11065;50.786;7.840;2022-10-16T08:28:09;19.20;66.20
21807;DHT22;11065;50.786;7.840;2022-10-16T08:30:37;19.30;66.00
21807;DHT22;11065;50.786;7.840;2022-10-16T08:33:04;19.40;65.20
21807;DHT22;11065;50.786;7.840;2022-10-16T08:35:32;19.50;65.30
21807;DHT22;11065;50.786;7.840;2022-10-16T08:37:59;19.70;65.30
21807;DHT22;11065;50.786;7.840;2022-10-16T08:40:28;19.90;66.90
21807;DHT22;11065;50.786;7.840;2022-10-16T08:45:38;20.70;69.30
21807;DHT22;11065;50.786;7.840;2022-10-16T08:48:17;21.30;72.50
21807;DHT22;11065;50.786;7.840;2022-10-16T08:50:48;22.10;70.30
21807;DHT22;11065;50.786;7.840;2022-10-16T08:53:22;23.00;76.00
21807;DHT22;11065;50.786;7.840;2022-10-16T08:55:52;24.20;74.20
21807;DHT22;11065;50.786;7.840;2022-10-16T08:58:22;25.30;69.00
21807;DHT22;11065;50.786;7.840;2022-10-16T09:01:00;26.00;63.80
21807;DHT22;11065;50.786;7.840;2022-10-16T09:03:53;26.50;57.60
21807;DHT22;11065;50.786;7.840;2022-10-16T09:06:41;26.60;54.40
21807;DHT22;11065;50.786;7.840;2022-10-16T09:09:36;26.40;54.10
21807;DHT22;11065;50.786;7.840;2022-10-16T09:12:17;26.30;56.00
21807;DHT22;11065;50.786;7.840;2022-10-16T09:22:36;26.60;53.40
21807;DHT22;11065;50.786;7.840;2022-10-16T09:25:12;26.60;54.20
21807;DHT22;11065;50.786;7.840;2022-10-16T09:27:40;26.70;53.80
21807;DHT22;11065;50.786;7.840;2022-10-16T09:30:18;26.90;54.40
21807;DHT22;11065;50.786;7.840;2022-10-16T09:32:48;27.30;51.40
21807;DHT22;11065;50.786;7.840;2022-10-16T09:35:20;27.60;52.70
21807;DHT22;11065;50.786;7.840;2022-10-16T09:37:50;27.90;52.50
21807;DHT22;11065;50.786;7.840;2022-10-16T09:40:32;28.00;51.30
21807;DHT22;11065;50.786;7.840;2022-10-16T09:45:33;27.70;47.60
21807;DHT22;11065;50.786;7.840;2022-10-16T09:48:08;27.30;48.40
21807;DHT22;11065;50.786;7.840;2022-10-16T09:50:36;26.90;48.60
21807;DHT22;11065;50.786;7.840;2022-10-16T09:55:31;26.20;48.50
21807;DHT22;11065;50.786;7.840;2022-10-16T09:57:58;25.90;48.90
21807;DHT22;11065;50.786;7.840;2022-10-16T10:00:25;25.60;49.10
21807;DHT22;11065;50.786;7.840;2022-10-16T10:02:53;25.40;49.60
21807;DHT22;11065;50.786;7.840;2022-10-16T10:05:27;25.30;49.00
21807;DHT22;11065;50.786;7.840;2022-10-16T10:08:02;25.20;50.10
21807;DHT22;11065;50.786;7.840;2022-10-16T10:10:37;25.30;50.70
21807;DHT22;11065;50.786;7.840;2022-10-16T10:13:18;25.50;51.30
21807;DHT22;11065;50.786;7.840;2022-10-16T10:15:45;25.90;51.60
21807;DHT22;11065;50.786;7.840;2022-10-16T10:18:20;26.30;52.80
21807;DHT22;11065;50.786;7.840;2022-10-16T10:20:59;26.70;50.80
21807;DHT22;11065;50.786;7.840;2022-10-16T10:23:28;27.10;50.60
21807;DHT22;11065;50.786;7.840;2022-10-16T10:28:47;28.00;49.00
21807;DHT22;11065;50.786;7.840;2022-10-16T10:31:31;28.20;48.10
21807;DHT22;11065;50.786;7.840;2022-10-16T10:37:02;27.80;46.00
21807;DHT22;11065;50.786;7.840;2022-10-16T10:39:48;27.60;45.90
21807;DHT22;11065;50.786;7.840;2022-10-16T10:42:27;27.20;45.50
21807;DHT22;11065;50.786;7.840;2022-10-16T10:45:11;26.90;45.70
21807;DHT22;11065;50.786;7.840;2022-10-16T10:48:10;26.60;46.50
21807;DHT22;11065;50.786;7.840;2022-10-16T10:50:48;26.80;47.10
21807;DHT22;11065;50.786;7.840;2022-10-16T10:57:16;27.00;46.50
21807;DHT22;11065;50.786;7.840;2022-10-16T11:07:51;27.20;46.20
21807;DHT22;11065;50.786;7.840;2022-10-16T11:10:22;27.20;46.50
21807;DHT22;11065;50.786;7.840;2022-10-16T11:12:58;27.20;46.20
21807;DHT22;11065;50.786;7.840;2022-10-16T11:15:30;27.20;46.30
21807;DHT22;11065;50.786;7.840;2022-10-16T11:18:08;27.50;48.00
21807;DHT22;11065;50.786;7.840;2022-10-16T11:20:42;27.90;47.10
21807;DHT22;11065;50.786;7.840;2022-10-16T11:23:16;28.20;46.30
21807;DHT22;11065;50.786;7.840;2022-10-16T11:25:45;28.50;46.30
21807;DHT22;11065;50.786;7.840;2022-10-16T11:28:20;28.80;45.90
21807;DHT22;11065;50.786;7.840;2022-10-16T11:31:08;29.10;46.00
21807;DHT22;11065;50.786;7.840;2022-10-16T11:36:16;30.00;46.80
21807;DHT22;11065;50.786;7.840;2022-10-16T11:39:08;30.30;44.50
21807;DHT22;11065;50.786;7.840;2022-10-16T11:42:03;30.50;43.70
21807;DHT22;11065;50.786;7.840;2022-10-16T11:47:34;30.20;41.90
21807;DHT22;11065;50.786;7.840;2022-10-16T11:50:29;30.00;42.10
21807;DHT22;11065;50.786;7.840;2022-10-16T11:53:04;30.00;43.20
21807;DHT22;11065;50.786;7.840;2022-10-16T11:55:39;30.00;43.50
21807;DHT22;11065;50.786;7.840;2022-10-16T12:01:10;30.40;42.10
21807;DHT22;11065;50.786;7.840;2022-10-16T12:06:53;30.60;42.30
21807;DHT22;11065;50.786;7.840;2022-10-16T12:09:30;30.60;41.20
21807;DHT22;11065;50.786;7.840;2022-10-16T12:11:58;30.60;41.60
21807;DHT22;11065;50.786;7.840;2022-10-16T12:22:57;29.90;39.70
21807;DHT22;11065;50.786;7.840;2022-10-16T12:25:34;29.80;40.10
21807;DHT22;11065;50.786;7.840;2022-10-16T12:28:07;29.80;40.90
21807;DHT22;11065;50.786;7.840;2022-10-16T12:30:52;30.00;41.80
21807;DHT22;11065;50.786;7.840;2022-10-16T12:33:28;30.40;42.00
21807;DHT22;11065;50.786;7.840;2022-10-16T12:35:57;30.90;42.70
21807;DHT22;11065;50.786;7.840;2022-10-16T12:38:37;31.40;42.60
21807;DHT22;11065;50.786;7.840;2022-10-16T12:41:08;32.00;42.50
21807;DHT22;11065;50.786;7.840;2022-10-16T12:43:44;32.40;41.30
21807;DHT22;11065;50.786;7.840;2022-10-16T12:48:43;32.50;39.20
21807;DHT22;11065;50.786;7.840;2022-10-16T12:54:20;32.00;38.80
21807;DHT22;11065;50.786;7.840;2022-10-16T12:57:22;31.70;37.80
21807;DHT22;11065;50.786;7.840;2022-10-16T13:02:54;30.90;38.10
21807;DHT22;11065;50.786;7.840;2022-10-16T13:05:42;30.40;38.00
21807;DHT22;11065;50.786;7.840;2022-10-16T13:08:43;30.00;38.20
21807;DHT22;11065;50.786;7.840;2022-10-16T13:19:40;28.50;39.00
21807;DHT22;11065;50.786;7.840;2022-10-16T13:22:15;28.10;39.00
21807;DHT22;11065;50.786;7.840;2022-10-16T13:27:40;27.70;39.10
21807;DHT22;11065;50.786;7.840;2022-10-16T13:30:12;27.60;39.70
21807;DHT22;11065;50.786;7.840;2022-10-16T13:32:40;27.70;40.50
21807;DHT22;11065;50.786;7.840;2022-10-16T13:35:25;27.80;41.00
21807;DHT22;11065;50.786;7.840;2022-10-16T13:38:13;28.20;40.80
21807;DHT22;11065;50.786;7.840;2022-10-16T13:43:37;28.40;39.60
21807;DHT22;11065;50.786;7.840;2022-10-16T13:46:18;28.40;39.80
21807;DHT22;11065;50.786;7.840;2022-10-16T13:49:11;28.30;39.40
21807;DHT22;11065;50.786;7.840;2022-10-16T13:51:38;28.20;39.20
21807;DHT22;11065;50.786;7.840;2022-10-16T13:54:05;28.10;39.90
21807;DHT22;11065;50.786;7.840;2022-10-16T13:56:32;28.10;40.10
21807;DHT22;11065;50.786;7.840;2022-10-16T13:59:05;28.10;40.10
21807;DHT22;11065;50.786;7.840;2022-10-16T14:01:40;28.10;39.70
21807;DHT22;11065;50.786;7.840;2022-10-16T14:04:09;28.10;39.50
21807;DHT22;11065;50.786;7.840;2022-10-16T14:06:41;28.10;40.00
21807;DHT22;11065;50.786;7.840;2022-10-16T14:09:21;28.10;39.90
21807;DHT22;11065;50.786;7.840;2022-10-16T14:11:52;28.10;40.00
21807;DHT22;11065;50.786;7.840;2022-10-16T14:14:19;28.00;40.00
21807;DHT22;11065;50.786;7.840;2022-10-16T14:16:46;27.90;40.00
21807;DHT22;11065;50.786;7.840;2022-10-16T14:21:47;27.60;39.90
21807;DHT22;11065;50.786;7.840;2022-10-16T14:26:57;27.40;40.30
21807;DHT22;11065;50.786;7.840;2022-10-16T14:29:26;27.40;40.50
21807;DHT22;11065;50.786;7.840;2022-10-16T14:32:04;27.40;40.50
21807;DHT22;11065;50.786;7.840;2022-10-16T14:34:38;27.40;40.50
21807;DHT22;11065;50.786;7.840;2022-10-16T14:37:26;27.30;40.40
21807;DHT22;11065;50.786;7.840;2022-10-16T14:39:54;27.20;40.10
21807;DHT22;11065;50.786;7.840;2022-10-16T14:42:24;27.10;40.20
21807;DHT22;11065;50.786;7.840;2022-10-16T14:44:53;27.00;40.20
21807;DHT22;11065;50.786;7.840;2022-10-16T14:47:23;26.80;40.20
21807;DHT22;11065;50.786;7.840;2022-10-16T14:49:54;26.50;40.40
21807;DHT22;11065;50.786;7.840;2022-10-16T14:52:22;26.40;40.60
21807;DHT22;11065;50.786;7.840;2022-10-16T14:54:49;26.20;40.60
21807;DHT22;11065;50.786;7.840;2022-10-16T14:57:18;26.00;40.70
21807;DHT22;11065;50.786;7.840;2022-10-16T14:59:47;25.80;40.80
21807;DHT22;11065;50.786;7.840;2022-10-16T15:04:49;25.50;41.30
21807;DHT22;11065;50.786;7.840;2022-10-16T15:07:16;25.30;41.30
21807;DHT22;11065;50.786;7.840;2022-10-16T15:09:42;25.10;41.40
21807;DHT22;11065;50.786;7.840;2022-10-16T15:12:15;25.00;41.70
21807;DHT22;11065;50.786;7.840;2022-10-16T15:14:42;24.80;41.90
21807;DHT22;11065;50.786;7.840;2022-10-16T15:17:10;24.70;42.20
21807;DHT22;11065;50.786;7.840;2022-10-16T15:19:37;24.60;42.40
21807;DHT22;11065;50.786;7.840;2022-10-16T15:22:04;24.50;42.50
21807;DHT22;11065;50.786;7.840;2022-10-16T15:24:31;24.40;42.70
21807;DHT22;11065;50.786;7.840;2022-10-16T15:26:58;24.30;42.80
21807;DHT22;11065;50.786;7.840;2022-10-16T15:29:24;24.20;42.90
21807;DHT22;11065;50.786;7.840;2022-10-16T15:31:51;24.20;43.00
21807;DHT22;11065;50.786;7.840;2022-10-16T15:34:18;24.10;43.20
21807;DHT22;11065;50.786;7.840;2022-10-16T15:36:46;24.00;43.40
21807;DHT22;11065;50.786;7.840;2022-10-16T15:39:14;24.00;43.50
21807;DHT22;11065;50.786;7.840;2022-10-16T15:41:42;23.90;43.60
21807;DHT22;11065;50.786;7.840;2022-10-16T15:44:09;23.80;43.60
21807;DHT22;11065;50.786;7.840;2022-10-16T15:46:36;23.80;43.80
21807;DHT22;11065;50.786;7.840;2022-10-16T15:49:04;23.70;44.00
21807;DHT22;11065;50.786;7.840;2022-10-16T15:51:31;23.60;44.10
21807;DHT22;11065;50.786;7.840;2022-10-16T15:54:00;23.60;44.30
21807;DHT22;11065;50.786;7.840;2022-10-16T15:56:28;23.50;44.30
21807;DHT22;11065;50.786;7.840;2022-10-16T15:58:55;23.40;44.50
21807;DHT22;11065;50.786;7.840;2022-10-16T16:01:23;23.30;44.70
21807;DHT22;11065;50.786;7.840;2022-10-16T16:03:54;23.30;44.90
21807;DHT22;11065;50.786;7.840;2022-10-16T16:06:22;23.20;45.10
21807;DHT22;11065;50.786;7.840;2022-10-16T16:08:50;23.20;45.20
21807;DHT22;11065;50.786;7.840;2022-10-16T16:11:18;23.10;45.30
21807;DHT22;11065;50.786;7.840;2022-10-16T16:13:45;23.00;45.40
21807;DHT22;11065;50.786;7.840;2022-10-16T16:16:15;23.00;45.50
21807;DHT22;11065;50.786;7.840;2022-10-16T16:18:42;22.90;45.60
21807;DHT22;11065;50.786;7.840;2022-10-16T16:21:11;22.90;45.70
21807;DHT22;11065;50.786;7.840;2022-10-16T16:23:38;22.80;45.90
21807;DHT22;11065;50.786;7.840;2022-10-16T16:26:12;22.70;45.80
21807;DHT22;11065;50.786;7.840;2022-10-16T16:28:40;22.70;46.30
21807;DHT22;11065;50.786;7.840;2022-10-16T16:31:07;22.60;46.10
21807;DHT22;11065;50.786;7.840;2022-10-16T16:33:34;22.60;46.30
21807;DHT22;11065;50.786;7.840;2022-10-16T16:36:04;22.50;46.40
21807;DHT22;11065;50.786;7.840;2022-10-16T16:38:36;22.50;46.60
21807;DHT22;11065;50.786;7.840;2022-10-16T16:41:16;22.40;46.60
21807;DHT22;11065;50.786;7.840;2022-10-16T16:43:44;22.30;47.10
21807;DHT22;11065;50.786;7.840;2022-10-16T16:46:11;22.20;46.70
21807;DHT22;11065;50.786;7.840;2022-10-16T16:48:38;22.20;46.90
21807;DHT22;11065;50.786;7.840;2022-10-16T16:51:08;22.10;47.10
21807;DHT22;11065;50.786;7.840;2022-10-16T16:53:36;22.00;47.20
21807;DHT22;11065;50.786;7.840;2022-10-16T16:56:04;22.00;47.30
21807;DHT22;11065;50.786;7.840;2022-10-16T16:58:32;21.90;48.00
21807;DHT22;11065;50.786;7.840;2022-10-16T17:01:00;21.90;47.60
21807;DHT22;11065;50.786;7.840;2022-10-16T17:03:46;21.80;47.70
21807;DHT22;11065;50.786;7.840;2022-10-16T17:06:16;21.80;47.80
21807;DHT22;11065;50.786;7.840;2022-10-16T17:08:47;21.70;47.80
21807;DHT22;11065;50.786;7.840;2022-10-16T17:11:19;21.70;48.00
21807;DHT22;11065;50.786;7.840;2022-10-16T17:13:46;21.60;48.20
21807;DHT22;11065;50.786;7.840;2022-10-16T17:16:18;21.60;48.30
21807;DHT22;11065;50.786;7.840;2022-10-16T17:18:46;21.50;48.40
21807;DHT22;11065;50.786;7.840;2022-10-16T17:21:13;21.40;48.60